Time;durP1;ratioP1;P1;durP2;ratioP2;P2;SDS_P1;SDS_P2;PMS_P1;PMS_P2;Temp;Humidity;BMP_temperature;BMP_pressure;BME280_temperature;BME280_humidity;BME280_pressure;Samples;Min_cycle;Max_cycle;Signal;HPM_P1;HPM_P2
2021/04/27 00:02:02;;;;;;;0.25;0.10;;;;;;;7.91;38.72;100239.91;6254195;22;19999;-77
2021/04/27 00:04:27;;;;;;;0.10;0.10;;;;;;;7.84;38.68;100230.03;6255958;22;20415;-77
2021/04/27 00:06:53;;;;;;;0.20;0.20;;;;;;;7.86;38.78;100233.31;6252082;22;20090;-77
2021/04/27 00:09:18;;;;;;;0.98;0.20;;;;;;;7.77;38.86;100223.09;6257315;22;20087;-77
2021/04/27 00:11:44;;;;;;;0.40;0.40;;;;;;;7.73;39.06;100219.25;6255953;22;20407;-77
2021/04/27 00:14:12;;;;;;;0.30;0.30;;;;;;;7.65;39.37;100209.63;6255188;22;20456;-78
2021/04/27 00:16:37;;;;;;;0.17;0.10;;;;;;;7.65;39.02;100221.34;6255611;22;20014;-76
2021/04/27 00:19:04;;;;;;;0.98;0.30;;;;;;;7.71;39.49;100227.69;6255761;22;20020;-76
2021/04/27 00:21:32;;;;;;;0.20;0.20;;;;;;;7.60;39.03;100215.00;6284577;22;20000;-78
2021/04/27 00:23:58;;;;;;;0.20;0.10;;;;;;;7.54;39.28;100205.13;6278930;22;19999;-77
2021/04/27 00:26:33;;;;;;;0.10;0.10;;;;;;;7.50;39.24;100208.38;6227115;22;20023;-75
2021/04/27 00:29:25;;;;;;;0.20;0.20;;;;;;;7.62;39.12;100226.47;6260020;22;19999;-78
2021/04/27 00:32:04;;;;;;;;;;;;;;;;;;;;;
2021/04/27 00:34:45;;;;;;;3.22;0.10;;;;;;;7.31;39.58;100179.78;6291828;22;20441;-78
2021/04/27 00:40:20;;;;;;;0.40;0.20;;;;;;;7.33;39.59;100196.69;6272305;22;20420;-78
2021/04/27 00:43:19;;;;;;;;;;;;;;;;;;;;;
2021/04/27 00:48:38;;;;;;;;;;;;;;;7.25;39.97;100199.81;6276784;22;20003;-79
2021/04/27 00:51:06;;;;;;;0.30;0.30;;;;;;;7.10;40.36;100179.47;6259582;22;19914;-78
2021/04/27 00:53:47;;;;;;;;;;;;;;;;;;;;;
2021/04/27 00:56:13;;;;;;;0.10;0.10;;;;;;;7.04;40.36;100161.44;6262595;22;20067;-77
2021/04/27 00:58:38;;;;;;;0.20;0.10;;;;;;;7.05;40.69;100168.50;6228686;22;20008;-77
2021/04/27 01:01:16;;;;;;;;;;;;;;;;;;;;;
2021/04/27 01:03:50;;;;;;;0.30;0.22;;;;;;;6.95;41.00;100157.47;6285213;22;20027;-78
2021/04/27 01:06:18;;;;;;;0.30;0.20;;;;;;;6.85;41.26;100132.88;6257705;22;19998;-77
2021/04/27 01:09:31;;;;;;;0.50;0.28;;;;;;;6.81;41.29;100129.84;6254102;22;20003;-77
2021/04/27 01:12:30;;;;;;;;;;;;;;;;;;;;;
2021/04/27 01:15:18;;;;;;;0.45;0.43;;;;;;;6.80;40.91;100164.34;6283866;22;20042;-76
2021/04/27 01:17:57;;;;;;;;;;;;;;;;;;;;;
2021/04/27 01:20:41;;;;;;;0.20;0.10;;;;;;;6.92;41.17;100169.69;6287065;22;20046;-74
2021/04/27 01:23:24;;;;;;;;;;;;;;;;;;;;;
2021/04/27 01:26:04;;;;;;;0.20;0.20;;;;;;;6.78;41.50;100141.19;6286524;22;20019;-76
2021/04/27 01:28:40;;;;;;;0.20;0.20;;;;;;;6.67;42.08;100121.19;6258496;22;20038;-76
2021/04/27 01:31:16;;;;;;;;;;;;;;;;;;;;;
2021/04/27 01:33:52;;;;;;;0.38;0.30;;;;;;;6.66;42.17;100149.44;6284381;22;20020;-77
2021/04/27 01:36:32;;;;;;;0.17;0.15;;;;;;;6.51;42.13;100127.44;6255372;22;20470;-76
2021/04/27 01:39:25;;;;;;;;;;;;;;;;;;;;;
2021/04/27 01:42:12;;;;;;;0.10;0.10;;;;;;;6.36;42.23;100117.97;6285023;22;20022;-76
2021/04/27 01:45:08;;;;;;;;;;;;;;;;;;;;;
2021/04/27 01:47:53;;;;;;;;;;;;;;;;;;;;;
2021/04/27 01:50:37;;;;;;;0.10;0.10;;;;;;;6.19;43.20;100106.25;6258683;22;20031;-76
2021/04/27 01:53:20;;;;;;;0.25;0.20;;;;;;;6.37;43.34;100143.25;6282780;22;20004;-74
2021/04/27 01:55:46;;;;;;;0.17;0.17;;;;;;;6.17;43.48;100125.50;6255867;22;20007;-76
2021/04/27 01:58:11;;;;;;;0.10;0.10;;;;;;;6.30;43.02;100137.97;6288287;22;20010;-77
2021/04/27 02:00:37;;;;;;;0.00;0.00;;;;;;;6.18;43.62;100115.50;6288799;22;19995;-77
2021/04/27 02:03:09;;;;;;;0.17;0.10;;;;;;;6.07;43.87;100115.28;6261264;22;20007;-76
2021/04/27 02:05:35;;;;;;;0.10;0.10;;;;;;;6.13;43.60;100129.78;6281142;22;20023;-78
2021/04/27 02:08:00;;;;;;;0.13;0.13;;;;;;;6.09;43.58;100132.16;6310488;22;20003;-76
2021/04/27 02:10:27;;;;;;;1.45;0.20;;;;;;;6.06;44.05;100135.38;6261245;22;20011;-76
2021/04/27 02:13:32;;;;;;;0.10;0.10;;;;;;;6.04;44.46;100137.50;6283611;22;20003;-74
2021/04/27 02:16:08;;;;;;;0.30;0.20;;;;;;;5.98;44.66;100137.66;6316381;22;20044;-76
2021/04/27 02:18:48;;;;;;;0.55;0.32;;;;;;;5.91;45.06;100133.16;6317651;22;20030;-75
2021/04/27 02:21:27;;;;;;;;;;;;;;;;;;;;;
2021/04/27 02:24:04;;;;;;;;;;;;;;;;;;;;;
2021/04/27 02:26:33;;;;;;;0.20;0.20;;;;;;;5.51;44.85;100093.31;6325092;22;20003;-79
2021/04/27 02:29:07;;;;;;;3.20;0.55;;;;;;;5.62;45.61;100112.50;6295739;22;20025;-78
2021/04/27 02:31:38;;;;;;;0.32;0.32;;;;;;;5.35;45.30;100078.59;6296442;22;19995;-78
2021/04/27 02:34:07;;;;;;;3.58;0.22;;;;;;;5.47;45.78;100094.03;6296703;22;20003;-77
2021/04/27 02:36:47;;;;;;;0.40;0.30;;;;;;;5.36;45.96;100087.56;6292126;22;20086;-76
2021/04/27 02:39:20;;;;;;;0.45;0.20;;;;;;;5.46;46.13;100111.34;6288360;22;20321;-77
2021/04/27 02:41:52;;;;;;;0.22;0.22;;;;;;;5.49;46.37;100113.59;6316573;22;19992;-76
2021/04/27 02:44:29;;;;;;;0.32;0.32;;;;;;;5.19;46.12;100085.59;6288427;22;20007;-76
2021/04/27 02:47:45;;;;;;;;;;;;;;;;;;;;;
2021/04/27 02:50:14;;;;;;;0.30;0.30;;;;;;;5.36;46.58;100111.97;6316515;22;20351;-76
2021/04/27 02:52:41;;;;;;;0.10;0.10;;;;;;;5.35;46.67;100105.72;6291054;22;20053;-76
2021/04/27 02:55:12;;;;;;;0.10;0.10;;;;;;;5.34;46.74;100105.97;6288796;22;20038;-77
2021/04/27 02:57:38;;;;;;;0.20;0.20;;;;;;;5.32;46.42;100111.63;6290297;22;20042;-77
2021/04/27 03:00:08;;;;;;;0.10;0.10;;;;;;;5.17;46.42;100095.03;6280626;22;20003;-76
2021/04/27 03:02:36;;;;;;;0.10;0.10;;;;;;;5.17;46.66;100089.59;6280167;22;20003;-77
2021/04/27 03:05:05;;;;;;;0.10;0.10;;;;;;;5.13;47.12;100091.16;6284434;22;19999;-77
2021/04/27 03:07:38;;;;;;;0.30;0.20;;;;;;;5.18;46.28;100091.25;6282504;22;20023;-77
2021/04/27 03:10:17;;;;;;;0.25;0.10;;;;;;;5.21;47.11;100090.78;6282089;22;20030;-76
2021/04/27 03:12:43;;;;;;;0.10;0.10;;;;;;;5.29;46.46;100105.88;6259394;22;20064;-76
2021/04/27 03:15:13;;;;;;;0.20;0.10;;;;;;;5.22;47.43;100095.16;6283077;22;20035;-78
2021/04/27 03:17:41;;;;;;;0.30;0.30;;;;;;;5.23;46.86;100099.50;6278758;22;20011;-77
2021/04/27 03:20:09;;;;;;;0.20;0.20;;;;;;;5.12;47.43;100082.19;6281706;22;20059;-77
2021/04/27 03:22:35;;;;;;;0.20;0.20;;;;;;;5.07;47.90;100077.47;6284189;22;20004;-78
2021/04/27 03:25:00;;;;;;;0.15;0.15;;;;;;;5.12;48.16;100075.94;6282280;22;20038;-78
2021/04/27 03:27:42;;;;;;;;;;;;;;;;;;;;;
2021/04/27 03:30:29;;;;;;;0.20;0.20;;;;;;;4.85;47.49;100044.75;6285813;22;20035;-78
2021/04/27 03:33:15;;;;;;;0.22;0.17;;;;;;;4.98;47.49;100059.94;6282790;22;20012;-76
2021/04/27 03:35:48;;;;;;;0.22;0.15;;;;;;;4.92;47.59;100057.34;6285106;22;20006;-77
2021/04/27 03:38:14;;;;;;;3.13;0.20;;;;;;;4.70;48.45;100020.88;6284920;22;20007;-76
2021/04/27 03:40:58;;;;;;;;;;;;;;;;;;;;;
2021/04/27 03:43:29;;;;;;;0.10;0.10;;;;;;;4.76;48.32;100037.22;6284389;22;20370;-76
2021/04/27 03:45:54;;;;;;;0.10;0.10;;;;;;;4.65;47.76;100028.88;6282334;22;20027;-75
2021/04/27 03:48:32;;;;;;;;;;;;;;;;;;;;;
2021/04/27 03:51:01;;;;;;;0.10;0.10;;;;;;;4.65;49.09;100033.47;6279850;22;20015;-74
2021/04/27 03:53:26;;;;;;;0.10;0.10;;;;;;;4.51;48.91;100016.63;6280703;22;20004;-76
2021/04/27 03:55:54;;;;;;;0.40;0.28;;;;;;;4.66;48.52;100048.69;6280703;22;20076;-76
2021/04/27 03:58:20;;;;;;;0.38;0.20;;;;;;;4.64;48.80;100043.47;6254600;22;20034;-76
2021/04/27 04:00:50;;;;;;;0.20;0.20;;;;;;;4.66;48.98;100040.56;6280211;22;19999;-75
2021/04/27 04:03:20;;;;;;;0.30;0.17;;;;;;;4.69;48.73;100051.72;6257894;22;20007;-76
2021/04/27 04:05:49;;;;;;;0.35;0.20;;;;;;;4.64;49.59;100031.81;6260996;22;20007;-77
2021/04/27 04:08:22;;;;;;;0.28;0.28;;;;;;;4.56;49.40;100019.47;6255402;22;20488;-75
2021/04/27 04:10:57;;;;;;;0.20;0.20;;;;;;;4.45;49.99;100012.16;6262822;22;20008;-77
2021/04/27 04:13:22;;;;;;;0.30;0.30;;;;;;;4.40;50.47;100004.75;6262999;22;20008;-76
2021/04/27 04:15:48;;;;;;;3.35;0.95;;;;;;;4.53;50.46;100033.47;6265532;22;20087;-75
2021/04/27 04:18:19;;;;;;;0.40;0.40;;;;;;;4.22;50.11;99989.47;6262569;22;20004;-76
2021/04/27 04:21:15;;;;;;;;;;;;;;;;;;;;;
2021/04/27 04:23:53;;;;;;;;;;;;;;;;;;;;;
2021/04/27 04:26:20;;;;;;;1.27;0.40;;;;;;;4.06;50.71;99972.03;6284696;22;20046;-75
2021/04/27 04:28:45;;;;;;;0.35;0.22;;;;;;;4.24;50.05;100003.56;6282725;22;20059;-75
2021/04/27 04:31:28;;;;;;;0.57;0.20;;;;;;;4.16;50.47;99993.09;6259297;22;20004;-79
2021/04/27 04:33:57;;;;;;;0.40;0.40;;;;;;;4.15;50.87;99996.88;6261441;22;20056;-79
2021/04/27 04:36:34;;;;;;;0.30;0.30;;;;;;;4.07;50.93;100000.72;6260856;22;20007;-79
2021/04/27 04:39:02;;;;;;;0.20;0.20;;;;;;;3.94;50.51;99973.88;6289160;22;20042;-78
2021/04/27 04:41:28;;;;;;;0.43;0.25;;;;;;;3.90;50.54;99976.25;6236428;22;20006;-77
2021/04/27 04:44:06;;;;;;;;;;;;;;;;;;;;;
2021/04/27 04:46:42;;;;;;;0.20;0.20;;;;;;;3.92;50.76;99976.81;6289806;22;20024;-79
2021/04/27 05:17:40;;;;;;;0.93;0.73;;;;;;;3.72;52.86;99966.31;5916082;24;20084;-75
2021/04/27 05:23:36;;;;;;;2.42;1.25;;;;;;;3.76;52.73;99972.09;6135741;23;20069;-76
2021/04/27 05:26:32;;;;;;;0.95;0.95;;;;;;;3.96;53.08;100001.53;6102903;23;20033;-77
2021/04/27 05:29:16;;;;;;;;;;;;;;;;;;;;;
2021/04/27 05:32:27;;;;;;;0.57;0.52;;;;;;;4.08;53.40;99994.25;6284690;22;20034;-76
2021/04/27 05:35:23;;;;;;;0.43;0.43;;;;;;;3.98;53.47;99959.66;6269900;22;20003;-76
2021/04/27 05:37:49;;;;;;;0.30;0.30;;;;;;;4.07;52.68;99956.63;6285392;22;20007;-78
2021/04/27 05:40:19;;;;;;;0.20;0.20;;;;;;;4.08;52.86;99950.16;6261447;22;20000;-79
2021/04/27 05:42:45;;;;;;;0.40;0.40;;;;;;;4.20;52.93;99948.25;6285841;22;20053;-77
2021/04/27 05:45:14;;;;;;;0.43;0.43;;;;;;;4.17;52.97;99929.78;6262536;22;20000;-78
2021/04/27 05:47:42;;;;;;;0.30;0.30;;;;;;;4.54;52.34;99979.09;6259471;22;20003;-77
2021/04/27 05:50:09;;;;;;;0.93;0.40;;;;;;;4.43;52.75;99943.91;6285020;22;20000;-78
2021/04/27 05:52:47;;;;;;;;;;;;;;;;;;;;;
2021/04/27 05:55:16;;;;;;;0.20;0.20;;;;;;;4.74;52.54;99960.81;6282065;22;20038;-76
2021/04/27 05:57:42;;;;;;;7.95;2.20;;;;;;;4.93;54.06;99978.53;6283625;22;19996;-76
2021/04/27 06:00:17;;;;;;;6.78;2.22;;;;;;;4.87;54.15;99933.44;6231845;22;20038;-76
2021/04/27 06:02:53;;;;;;;;;;;;;;;5.17;54.65;99970.31;6313245;22;20015;-77
2021/04/27 06:05:31;;;;;;;;;;;;;;;;;;;;;
2021/04/27 06:08:35;;;;;;;1.30;1.02;;;;;;;5.12;53.75;99945.84;6294068;22;20037;-78
2021/04/27 06:11:31;;;;;;;;;;;;;;;;;;;;;
2021/04/27 06:13:57;;;;;;;0.40;0.40;;;;;;;5.30;52.48;99931.25;6192149;23;20462;-74
2021/04/27 06:16:23;;;;;;;0.50;0.50;;;;;;;5.48;53.07;99944.63;6248373;22;20003;-76
2021/04/27 06:18:49;;;;;;;0.55;0.55;;;;;;;5.55;52.51;99939.06;6286834;22;20455;-77
2021/04/27 06:21:14;;;;;;;0.50;0.50;;;;;;;5.70;52.52;99950.16;6288617;22;20003;-74
2021/04/27 06:23:46;;;;;;;0.70;0.70;;;;;;;5.89;52.91;99955.34;6285503;22;20006;-81
2021/04/27 06:26:12;;;;;;;0.40;0.30;;;;;;;6.03;52.29;99947.72;6263906;22;20003;-76
2021/04/27 06:28:37;;;;;;;0.40;0.40;;;;;;;6.19;52.17;99948.78;6283516;22;20014;-74
2021/04/27 06:31:12;;;;;;;1.20;1.10;;;;;;;6.21;51.90;99928.47;6313884;22;20028;-77
2021/04/27 06:33:38;;;;;;;1.85;0.90;;;;;;;6.50;51.36;99946.50;6287958;22;20452;-77
2021/04/27 06:36:09;;;;;;;0.70;0.70;;;;;;;6.71;51.43;99951.13;6284630;22;20094;-76
2021/04/27 06:38:46;;;;;;;2.22;1.70;;;;;;;6.86;51.59;99946.97;6292409;22;20003;-77
2021/04/27 06:41:25;;;;;;;;;;;;;;;;;;;;;
2021/04/27 06:44:03;;;;;;;0.20;0.20;;;;;;;6.98;50.52;99906.91;6322661;22;20421;-77
2021/04/27 06:46:37;;;;;;;0.65;0.57;;;;;;;7.37;50.18;99942.09;6293827;22;20029;-77
2021/04/27 06:49:12;;;;;;;1.48;1.38;;;;;;;7.37;50.07;99925.78;6292917;22;20047;-77
2021/04/27 06:51:45;;;;;;;0.60;0.60;;;;;;;7.32;49.62;99914.88;6288734;22;20085;-79
2021/04/27 06:54:11;;;;;;;0.82;0.82;;;;;;;7.37;50.01;99912.19;6292135;22;20010;-76
2021/04/27 06:56:36;;;;;;;1.67;1.58;;;;;;;7.37;50.55;99920.34;6260908;22;20067;-76
2021/04/27 06:59:12;;;;;;;3.83;2.65;;;;;;;7.12;50.53;99891.00;6290109;22;20014;-76
2021/04/27 07:01:48;;;;;;;;;;;;;;;;;;;;;
2021/04/27 07:04:14;;;;;;;2.80;2.60;;;;;;;6.95;51.09;99907.38;6322481;22;20023;-77
2021/04/27 07:06:42;;;;;;;2.97;2.47;;;;;;;6.99;51.35;99908.53;6290104;22;20006;-78
2021/04/27 07:11:59;;;;;;;2.92;2.72;;;;;;;6.89;52.71;99900.25;6267394;22;20018;-76
2021/04/27 07:14:37;;;;;;;1.95;1.85;;;;;;;7.03;51.91;99917.81;6319004;22;20013;-77
2021/04/27 07:17:10;;;;;;;7.45;2.55;;;;;;;7.11;52.52;99917.38;6289557;22;20022;-76
2021/04/27 07:19:47;;;;;;;6.03;3.13;;;;;;;7.09;53.17;99908.63;6263975;22;20003;-76
2021/04/27 07:22:13;;;;;;;3.83;2.78;;;;;;;6.96;53.21;99890.00;6288861;22;20018;-78
2021/04/27 07:24:39;;;;;;;5.10;2.78;;;;;;;7.01;53.92;99900.97;6290101;22;20068;-76
2021/04/27 07:27:05;;;;;;;5.20;2.47;;;;;;;7.12;53.34;99907.31;6288864;22;20014;-76
2021/04/27 07:29:35;;;;;;;4.18;3.00;;;;;;;7.21;54.57;99910.41;6265652;22;20007;-75
2021/04/27 07:32:18;;;;;;;3.00;2.25;;;;;;;7.26;54.38;99914.00;6290873;22;20007;-77
2021/04/27 07:34:54;;;;;;;5.20;2.75;;;;;;;7.16;54.30;99898.38;6284803;22;20045;-76
2021/04/27 07:37:23;;;;;;;1.80;1.70;;;;;;;7.37;54.07;99898.59;6283907;22;20003;-76
2021/04/27 07:39:48;;;;;;;1.92;1.83;;;;;;;7.45;53.90;99895.41;6317266;22;19999;-75
2021/04/27 07:42:17;;;;;;;1.83;1.65;;;;;;;7.71;52.81;99892.91;6316666;22;20026;-77
2021/04/27 07:44:42;;;;;;;1.88;1.77;;;;;;;8.01;53.03;99913.28;6286872;22;20009;-76
2021/04/27 07:47:09;;;;;;;7.18;2.35;;;;;;;7.99;52.51;99882.78;6293052;22;20007;-76
2021/04/27 07:49:38;;;;;;;2.28;1.98;;;;;;;8.23;51.84;99894.06;6293263;22;20003;-76
2021/04/27 07:52:04;;;;;;;1.40;1.30;;;;;;;8.48;51.96;99904.31;6314355;22;20031;-76
2021/04/27 07:54:30;;;;;;;0.90;0.90;;;;;;;8.67;51.39;99892.97;6265868;22;20499;-76
2021/04/27 07:56:56;;;;;;;1.45;1.35;;;;;;;8.94;51.27;99900.16;6315130;22;20047;-77
2021/04/27 07:59:21;;;;;;;1.40;1.30;;;;;;;9.14;51.17;99897.50;6261579;22;20093;-76
2021/04/27 08:01:47;;;;;;;2.38;1.40;;;;;;;9.37;50.09;99895.34;6257459;22;20020;-77
2021/04/27 08:04:16;;;;;;;1.50;1.40;;;;;;;9.49;49.43;99884.16;6285473;22;20406;-76
2021/04/27 08:06:47;;;;;;;1.80;1.48;;;;;;;9.58;50.12;99877.88;6286511;22;19999;-76
2021/04/27 08:09:22;;;;;;;2.25;1.30;;;;;;;9.75;49.55;99868.59;6288664;22;20086;-77
2021/04/27 08:11:50;;;;;;;1.63;1.40;;;;;;;9.95;49.52;99868.56;6286003;22;20010;-75
2021/04/27 08:14:26;;;;;;;;;;;;;;;;;;;;;
2021/04/27 08:16:54;;;;;;;2.08;1.98;;;;;;;9.98;48.70;99867.22;6286119;22;20054;-76
2021/04/27 08:19:20;;;;;;;3.75;1.65;;;;;;;10.14;49.04;99860.59;6288159;22;20004;-76
2021/04/27 08:21:57;;;;;;;2.25;1.98;;;;;;;10.27;49.49;99864.69;6260591;22;20000;-77
2021/04/27 08:24:46;;;;;;;;;;;;;;;;;;;;;
2021/04/27 08:27:29;;;;;;;;;;;;;;;;;;;;;
2021/04/27 08:30:06;;;;;;;3.70;1.60;;;;;;;10.62;48.61;99843.81;6285337;22;20054;-77
2021/04/27 08:32:39;;;;;;;9.93;2.55;;;;;;;10.75;48.55;99858.00;6288355;22;20008;-75
2021/04/27 08:35:19;;;;;;;3.75;2.22;;;;;;;11.00;49.00;99849.63;6260438;22;20022;-77
2021/04/27 08:37:46;;;;;;;1.45;0.98;;;;;;;11.50;48.62;99876.91;6285539;22;20080;-77
2021/04/27 08:40:14;;;;;;;2.25;1.50;;;;;;;11.98;47.67;99868.06;6287150;22;20014;-76
2021/04/27 08:43:03;;;;;;;1.95;1.77;;;;;;;12.27;47.61;99842.53;6285153;22;20083;-75
2021/04/27 08:45:29;;;;;;;4.70;2.20;;;;;;;12.95;46.74;99873.50;6287466;22;20365;-77
2021/04/27 08:47:55;;;;;;;1.85;1.75;;;;;;;13.36;46.37;99872.97;6290291;22;20034;-77
2021/04/27 08:50:44;;;;;;;2.13;2.03;;;;;;;13.69;44.97;99864.75;6286242;22;20011;-75
2021/04/27 08:53:20;;;;;;;5.05;2.47;;;;;;;13.96;44.14;99857.72;6287716;22;20022;-75
2021/04/27 08:55:46;;;;;;;5.38;1.67;;;;;;;14.32;44.46;99868.00;6286682;22;20004;-75
2021/04/27 08:58:16;;;;;;;2.63;1.92;;;;;;;14.63;42.97;99854.50;6289146;22;20004;-75
2021/04/27 09:00:43;;;;;;;2.78;2.58;;;;;;;14.86;41.65;99857.31;6286714;22;20095;-78
2021/04/27 09:03:13;;;;;;;3.97;2.50;;;;;;;14.84;41.29;99838.34;6287577;22;20019;-77
2021/04/27 09:06:27;;;;;;;;;;;;;;;;;;;;;
2021/04/27 09:09:52;;;;;;;;;;;;;;;;;;;;;
2021/04/27 09:12:49;;;;;;;10.25;2.30;;;;;;;15.98;41.05;99855.78;6166903;23;20029;-78
2021/04/27 09:15:27;;;;;;;6.43;1.90;;;;;;;16.15;39.93;99834.91;6281380;22;20343;-77
2021/04/27 09:17:55;;;;;;;2.92;2.63;;;;;;;16.53;39.02;99857.31;6289359;22;19999;-79
2021/04/27 09:20:31;;;;;;;2.17;2.08;;;;;;;16.85;37.93;99835.97;6264113;22;20004;-81
2021/04/27 09:23:09;;;;;;;2.53;2.28;;;;;;;17.38;37.30;99841.53;6290053;22;20426;-78
2021/04/27 09:25:45;;;;;;;1.90;1.80;;;;;;;17.66;37.10;99830.13;6291824;22;20042;-78
2021/04/27 09:28:11;;;;;;;1.60;1.50;;;;;;;18.12;36.00;99831.31;6266213;22;20102;-79
2021/04/27 09:30:54;;;;;;;1.88;0.82;;;;;;;18.55;36.49;99824.75;6291552;22;20022;-79
2021/04/27 09:33:27;;;;;;;2.88;1.70;;;;;;;19.01;34.44;99834.13;6289259;22;20014;-78
2021/04/27 09:35:58;;;;;;;1.20;0.93;;;;;;;19.26;34.53;99823.16;6288831;22;20003;-79
2021/04/27 09:38:44;;;;;;;1.10;0.98;;;;;;;19.88;35.28;99815.06;6288264;22;20060;-79
2021/04/27 09:41:10;;;;;;;;;;;;;;;21.12;34.67;99831.72;6278451;22;20058;-80
2021/04/27 09:43:48;;;;;;;;;;;;;;;21.87;33.33;99821.91;6287950;22;19981;-78
2021/04/27 09:47:00;;;;;;;;;;;;;;;;;;;;;
2021/04/27 09:49:41;;;;;;;;;;;;;;;;;;;;;
2021/04/27 09:52:37;;;;;;;;;;;;;;;;;;;;;
2021/04/27 09:55:21;;;;;;;1.35;1.30;;;;;;;22.51;26.82;99794.88;6291305;22;19996;-80
2021/04/27 09:58:15;;;;;;;0.88;0.80;;;;;;;23.47;27.98;99777.81;6291032;22;20003;-80
2021/04/27 10:01:08;;;;;;;;;;;;;;;;;;;;;
2021/04/27 10:03:42;;;;;;;0.80;0.70;;;;;;;24.67;27.34;99775.88;6321005;22;20041;-79
2021/04/27 10:06:18;;;;;;;;;;;;;;;;;;;;;
2021/04/27 10:09:13;;;;;;;1.05;0.85;;;;;;;27.87;25.58;99800.03;6328686;22;19995;-81
2021/04/27 10:11:45;;;;;;;1.67;1.57;;;;;;;28.18;22.75;99783.63;6320096;22;19999;-80
2021/04/27 10:14:14;;;;;;;0.95;0.60;;;;;;;28.64;22.60;99796.88;6325736;22;20232;-80
2021/04/27 10:16:43;;;;;;;2.10;0.90;;;;;;;28.55;21.62;99779.59;6326484;22;20007;-82
2021/04/27 10:19:36;;;;;;;2.90;1.23;;;;;;;28.83;21.09;99792.00;6275077;22;20394;-83
2021/04/27 10:22:54;;;;;;;;;;;;;;;;;;;;;
2021/04/27 10:25:33;;;;;;;2.13;0.98;;;;;;;29.02;21.42;99788.72;6320897;22;20006;-83
2021/04/27 10:28:36;;;;;;;;;;;;;;;;;;;;;
2021/04/27 10:31:16;;;;;;;1.00;0.77;;;;;;;30.79;19.78;99779.81;6326374;22;20006;-82
2021/04/27 10:34:32;;;;;;;1.50;0.88;;;;;;;31.19;19.35;99778.56;6274934;22;20022;-80
2021/04/27 10:36:57;;;;;;;5.22;0.80;;;;;;;31.24;18.52;99784.56;6207007;22;20004;-83
2021/04/27 10:39:57;;;;;;;;;;;;;;;;;;;;;
2021/04/27 10:42:32;;;;;;;2.13;0.93;;;;;;;29.77;17.75;99764.19;6323785;22;20037;-82
2021/04/27 10:45:18;;;;;;;;;;;;;;;;;;;;;
2021/04/27 10:47:46;;;;;;;0.45;0.45;;;;;;;28.73;18.48;99774.72;6322351;22;20014;-82
2021/04/27 10:50:52;;;;;;;0.20;0.20;;;;;;;28.71;19.09;99748.25;6327026;22;19999;-80
2021/04/27 10:53:39;;;;;;;0.60;0.60;;;;;;;29.03;18.77;99755.72;6293726;22;20408;-82
2021/04/27 10:56:19;;;;;;;;;;;;;;;;;;;;;
2021/04/27 10:59:17;;;;;;;;;;;;;;;;;;;;;
2021/04/27 11:01:45;;;;;;;1.20;1.00;;;;;;;29.10;18.79;99730.38;6319129;22;20030;-76
2021/04/27 11:04:30;;;;;;;1.23;1.13;;;;;;;29.46;18.18;99752.72;6287513;22;20087;-76
2021/04/27 11:07:35;;;;;;;3.25;1.65;;;;;;;28.85;17.21;99727.69;6296172;22;20003;-82
2021/04/27 11:10:01;;;;;;;2.05;1.80;;;;;;;28.50;18.03;99737.81;6195144;22;20010;-78
2021/04/27 11:12:29;;;;;;;1.38;1.25;;;;;;;28.39;18.33;99735.81;6290241;22;20007;-78
2021/04/27 11:15:04;;;;;;;2.00;1.17;;;;;;;28.53;18.36;99742.63;6291305;22;20014;-78
2021/04/27 11:17:46;;;;;;;2.60;2.50;;;;;;;28.35;17.67;99723.78;6314894;22;20014;-77
2021/04/27 11:20:53;;;;;;;1.42;1.33;;;;;;;27.63;18.16;99735.03;6293347;22;20003;-76
2021/04/27 11:23:53;;;;;;;2.55;1.50;;;;;;;27.05;18.89;99716.41;6291855;22;20041;-77
2021/04/27 11:26:37;;;;;;;0.95;0.70;;;;;;;27.42;19.85;99723.75;6215139;22;20050;-78
2021/04/27 11:29:06;;;;;;;2.50;1.60;;;;;;;29.33;19.59;99724.25;6325631;22;20059;-79
2021/04/27 11:31:55;;;;;;;5.03;2.00;;;;;;;30.72;15.81;99731.94;6296221;22;20030;-77
2021/04/27 11:34:24;;;;;;;2.47;1.92;;;;;;;31.11;16.59;99719.38;6295286;22;20000;-77
2021/04/27 11:36:59;;;;;;;6.10;2.28;;;;;;;31.95;16.39;99713.28;6268960;22;20433;-79
2021/04/27 11:39:28;;;;;;;3.80;1.15;;;;;;;32.35;15.87;99716.25;6294304;22;20007;-76
2021/04/27 11:42:02;;;;;;;3.22;2.90;;;;;;;31.17;14.76;99721.75;6264497;22;20007;-79
2021/04/27 11:44:37;;;;;;;5.45;1.90;;;;;;;29.47;15.28;99716.91;6291000;22;20018;-76
2021/04/27 11:47:17;;;;;;;2.97;2.25;;;;;;;28.42;16.34;99713.75;6290772;22;19999;-75
2021/04/27 11:49:49;;;;;;;3.25;2.80;;;;;;;27.65;17.06;99712.94;6317565;22;20050;-78
2021/04/27 11:52:35;;;;;;;1.88;1.77;;;;;;;27.30;17.56;99699.63;6317497;22;20003;-76
2021/04/27 11:55:12;;;;;;;1.30;1.20;;;;;;;28.13;18.83;99700.53;6291871;22;20060;-76
2021/04/27 11:58:12;;;;;;;3.17;1.85;;;;;;;28.66;17.46;99696.00;6293551;22;20007;-78
2021/04/27 12:01:19;;;;;;;3.97;3.60;;;;;;;27.66;17.61;99699.72;6301435;22;20011;-80
2021/04/27 12:03:52;;;;;;;3.53;3.33;;;;;;;26.55;18.68;99681.31;6267511;22;20099;-81
2021/04/27 12:06:34;;;;;;;5.10;3.13;;;;;;;26.30;18.59;99707.22;6274595;22;20326;-82
2021/04/27 12:09:21;;;;;;;1.35;1.05;;;;;;;26.72;18.87;99671.44;6250713;22;20023;-81
2021/04/27 12:12:23;;;;;;;;;;;;;;;;;;;;;
2021/04/27 12:15:08;;;;;;;1.92;1.80;;;;;;;27.59;18.85;99694.91;6299635;22;20011;-79
2021/04/27 12:18:15;;;;;;;;;;;;;;;;;;;;;
2021/04/27 12:20:53;;;;;;;2.35;2.10;;;;;;;26.18;19.25;99681.50;6250295;22;20008;-81
2021/04/27 12:23:38;;;;;;;;;;;;;;;;;;;;;
2021/04/27 12:29:09;;;;;;;;;;;;;;;25.01;19.49;99667.63;6209700;23;20035;-81
2021/04/27 12:32:19;;;;;;;1.75;1.60;;;;;;;24.62;20.00;99654.03;6209774;23;19939;-81
2021/04/27 12:35:57;;;;;;;;;;;;;;;;;;;;;
2021/04/27 12:39:12;;;;;;;;;;;;;;;;;;;;;
2021/04/27 12:41:52;;;;;;;1.63;1.52;;;;;;;24.40;21.35;99650.13;6063089;23;20014;-82
2021/04/27 12:45:11;;;;;;;;;;;;;;;;;;;;;
2021/04/27 12:48:28;;;;;;;;;;;;;;;;;;;;;
2021/04/27 12:51:39;;;;;;;;;;;;;;;;;;;;;
2021/04/27 12:54:51;;;;;;;2.25;2.15;;;;;;;25.58;20.44;99639.47;6068238;23;20022;-80
2021/04/27 12:58:01;;;;;;;;;;;;;;;;;;;;;
2021/04/27 13:01:02;;;;;;;;;;;;;;;;;;;;;
2021/04/27 13:06:59;;;;;;;;;;;;;;;;;;;;;
2021/04/27 13:09:28;;;;;;;3.00;2.60;;;;;;;27.15;19.81;99609.03;6199117;23;20029;-80
2021/04/27 13:11:59;;;;;;;4.40;2.88;;;;;;;26.98;19.30;99611.41;6172262;23;20008;-75
2021/04/27 13:14:33;;;;;;;2.35;2.13;;;;;;;26.53;19.37;99602.41;6196969;23;20716;-75
2021/04/27 13:17:06;;;;;;;2.30;2.20;;;;;;;26.15;19.88;99596.25;6170782;23;20136;-76
2021/04/27 13:19:48;;;;;;;1.23;1.20;;;;;;;26.04;20.50;99601.00;6195261;23;20005;-75
2021/04/27 13:22:17;;;;;;;2.03;1.92;;;;;;;25.55;20.77;99612.25;6169334;23;20007;-75
2021/04/27 13:24:46;;;;;;;3.28;1.60;;;;;;;25.06;20.86;99602.19;6170496;23;20008;-74
2021/04/27 13:27:14;;;;;;;1.77;1.67;;;;;;;24.63;20.66;99596.91;6195318;23;20023;-78
2021/04/27 13:29:42;;;;;;;1.98;1.77;;;;;;;24.16;20.98;99589.94;6170439;23;20432;-76
2021/04/27 13:32:50;;;;;;;;;;;;;;;;;;;;;
2021/04/27 13:35:19;;;;;;;6.60;3.28;;;;;;;23.13;22.70;99599.06;6189215;23;20032;-75
2021/04/27 13:37:47;;;;;;;4.85;3.28;;;;;;;22.52;23.49;99584.78;6174141;23;19993;-79
2021/04/27 13:40:24;;;;;;;2.55;2.10;;;;;;;22.05;23.54;99567.09;6197198;23;20328;-79
2021/04/27 13:42:54;;;;;;;2.45;2.35;;;;;;;21.85;24.23;99566.25;6171701;23;20009;-76
2021/04/27 13:45:23;;;;;;;2.40;2.20;;;;;;;21.66;24.25;99561.44;6168919;23;20035;-77
2021/04/27 13:47:56;;;;;;;2.88;2.35;;;;;;;21.79;24.45;99581.63;6144534;23;20001;-77
2021/04/27 13:50:22;;;;;;;2.72;2.60;;;;;;;21.61;24.62;99548.63;6169825;23;20020;-74
2021/04/27 13:52:51;;;;;;;4.43;2.30;;;;;;;21.64;24.56;99547.09;6167009;23;20412;-76
2021/04/27 13:55:16;;;;;;;1.85;1.77;;;;;;;21.76;24.43;99574.78;6169056;23;20420;-76
2021/04/27 13:57:47;;;;;;;0.60;0.60;;;;;;;21.76;24.30;99544.19;6199300;23;20016;-76
2021/04/27 14:00:25;;;;;;;0.82;0.60;;;;;;;22.00;24.47;99561.78;6172004;23;20012;-77
2021/04/27 14:05:37;;;;;;;3.13;2.95;;;;;;;21.72;24.96;99565.56;6183879;23;19989;-78
2021/04/27 14:08:09;;;;;;;2.15;2.05;;;;;;;21.31;25.06;99545.50;6201203;23;20080;-79
2021/04/27 14:10:48;;;;;;;1.50;1.48;;;;;;;21.10;24.84;99524.34;6173683;23;20005;-78
2021/04/27 14:13:19;;;;;;;1.70;1.60;;;;;;;21.15;25.39;99537.16;6170525;23;20087;-79
2021/04/27 14:15:48;;;;;;;1.70;1.60;;;;;;;21.09;25.41;99528.28;6170416;23;20005;-79
2021/04/27 14:18:14;;;;;;;2.25;2.15;;;;;;;21.10;25.52;99535.47;6171176;23;20428;-79
2021/04/27 14:20:49;;;;;;;2.30;2.20;;;;;;;20.93;26.30;99524.69;6169342;23;20015;-80
2021/04/27 14:23:22;;;;;;;4.10;3.17;;;;;;;20.72;26.54;99506.31;6168417;23;20005;-77
2021/04/27 14:25:54;;;;;;;2.17;2.08;;;;;;;20.81;26.53;99538.66;6145629;23;20013;-78
2021/04/27 14:28:30;;;;;;;;;;;;;;;;;;;;;